Astra — PB4187 — position and weather

sailwx.info

Track history (hours):
 
Tides and Currents Weather Stations Pressure Air Temp Water Temp Dewpoint Dewpoint Depression Visibility Wind Speed Wind Dir Waves Ship Positions

Astra

Last reported at 2014-Oct-21 17:33 UTC. Time now 2014-Oct-21 18:31 UTC.
Position N 49°23' E 008°30'.

Length 110 m; draft 1.4 m.

Type: Tanker. MMSI: 244650752.

Date/timePositionNaut miles runAvg speedWind from/ knotsBaromVisibWave heightAir tempDewpointWater temp
2014-Oct-21 17:33N 49°23' E 008°30'7 6.8
2014-Oct-21 16:33N 49°16' E 008°27'9 8.5
2014-Oct-21 15:33N 49°08' E 008°22'4 4.4
2014-Oct-21 14:33N 49°04' E 008°20'0 0.0
2014-Oct-21 13:33N 49°04' E 008°20'0 0.0
2014-Oct-21 12:33N 49°04' E 008°20'0 0.0
2014-Oct-21 11:33N 49°04' E 008°20'0 0.0
2014-Oct-21 10:33N 49°04' E 008°20'0 0.0
2014-Oct-21 09:33N 49°04' E 008°20'0 0.0
2014-Oct-21 08:33N 49°04' E 008°20'0 0.0
2014-Oct-21 07:33N 49°04' E 008°20'0 0.0
2014-Oct-21 06:33N 49°04' E 008°20'0 0.0
2014-Oct-21 05:33N 49°04' E 008°20'0 0.0
2014-Oct-21 04:33N 49°04' E 008°20'0 0.0
2014-Oct-21 03:33N 49°04' E 008°20'0 0.0
2014-Oct-21 02:33N 49°04' E 008°20'0 0.0
2014-Oct-21 01:33N 49°04' E 008°20'0 0.3
2014-Oct-21 00:33N 49°04' E 008°20'0 0.0
2014-Oct-20 23:33N 49°04' E 008°20'0 0.0
2014-Oct-20 22:33N 49°04' E 008°20'0 0.0
2014-Oct-20 21:33N 49°04' E 008°20'0 0.0
2014-Oct-20 20:33N 49°04' E 008°20'0 0.0
2014-Oct-20 19:33N 49°04' E 008°20'0 0.0
2014-Oct-20 18:33N 49°04' E 008°20'0 0.0
2014-Oct-20 17:33N 49°04' E 008°20'0 0.0
2014-Oct-20 16:33N 49°04' E 008°20'0 0.0
2014-Oct-20 15:33N 49°04' E 008°20'0 0.0
2014-Oct-20 14:33N 49°04' E 008°20'0 0.0
2014-Oct-20 13:33N 49°04' E 008°20'0 0.0
2014-Oct-20 12:33N 49°04' E 008°20'0 0.0
2014-Oct-20 11:33N 49°04' E 008°20'0 0.0
2014-Oct-20 10:33N 49°04' E 008°20'0 0.2
2014-Oct-20 09:33N 49°04' E 008°20'0 0.2
2014-Oct-20 08:33N 49°04' E 008°20'0 0.0
2014-Oct-20 07:33N 49°04' E 008°20'0 0.0
2014-Oct-20 06:34N 49°04' E 008°20'0 0.0
2014-Oct-20 05:33N 49°04' E 008°20'0 0.0
2014-Oct-20 04:33N 49°04' E 008°20'0 0.0
2014-Oct-20 03:33N 49°04' E 008°20'0 0.0
2014-Oct-20 02:34N 49°04' E 008°20'0 0.0
2014-Oct-20 01:33N 49°04' E 008°20'0 0.0
2014-Oct-20 00:33N 49°04' E 008°20'0 0.0
2014-Oct-19 23:33N 49°04' E 008°20'0 0.2
2014-Oct-19 22:33N 49°04' E 008°20'0 0.0
2014-Oct-19 21:33N 49°04' E 008°20'0 0.0
2014-Oct-19 20:33N 49°04' E 008°20'0 0.0
2014-Oct-19 19:33N 49°04' E 008°20'0 0.0
2014-Oct-19 18:33N 49°04' E 008°20'0 0.0
2014-Oct-19 17:33N 49°04' E 008°20'0 0.0
2014-Oct-19 16:33N 49°04' E 008°20'0 0.0
2014-Oct-19 15:33N 49°04' E 008°20'0 0.0
2014-Oct-19 14:33N 49°04' E 008°20'0 0.0
2014-Oct-19 13:33N 49°04' E 008°20'0 0.0
2014-Oct-19 12:33N 49°04' E 008°20'0 0.0
2014-Oct-19 11:33N 49°04' E 008°20'0 0.0
2014-Oct-19 10:33N 49°04' E 008°20'0 0.0
2014-Oct-19 09:33N 49°04' E 008°20'0 0.1
2014-Oct-19 08:33N 49°04' E 008°20'0 0.0
2014-Oct-19 07:33N 49°04' E 008°20'0 0.0
2014-Oct-19 06:33N 49°04' E 008°20'0 0.0
2014-Oct-19 05:33N 49°04' E 008°20'0 0.0
2014-Oct-19 04:33N 49°04' E 008°20'0 0.0
2014-Oct-19 03:33N 49°04' E 008°20'0 0.0
2014-Oct-19 02:33N 49°04' E 008°20'0 0.0
2014-Oct-19 01:33N 49°04' E 008°20'0 0.0
2014-Oct-19 00:33N 49°04' E 008°20'0 0.0
2014-Oct-18 23:33N 49°04' E 008°20'0 0.0
2014-Oct-18 22:33N 49°04' E 008°20'0 0.0
2014-Oct-18 21:33N 49°04' E 008°20'0 0.0
2014-Oct-18 20:33N 49°04' E 008°20'0 0.0
2014-Oct-18 19:33N 49°04' E 008°20'0 0.0
2014-Oct-18 18:33N 49°04' E 008°20'3 2.7
2014-Oct-18 17:33N 49°07' E 008°22'4 4.4
2014-Oct-18 16:33N 49°11' E 008°23'5 4.5
2014-Oct-18 15:33N 49°15' E 008°26'4 3.7
2014-Oct-18 14:33N 49°19' E 008°28'123 3.7
2014-Oct-17 05:05N 51°05' E 006°51'2 3.8
2014-Oct-17 04:33N 51°07' E 006°52'3 2.6
2014-Oct-17 03:33N 51°09' E 006°49'4 3.5
2014-Oct-17 02:33N 51°11' E 006°45'3 2.6
2014-Oct-17 01:33N 51°13' E 006°46'4 4.2
2014-Oct-17 00:33N 51°17' E 006°43'4 3.9
2014-Oct-16 23:33N 51°21' E 006°41'5 3.6
2014-Oct-16 22:17N 51°25' E 006°45'42 4.2
2014-Oct-16 12:14N 51°51' E 005°52'4 5.9
2014-Oct-16 11:33N 51°53' E 005°46'6 6.3
2014-Oct-16 10:33N 51°54' E 005°36'5 5.4
2014-Oct-16 09:33N 51°54' E 005°27'6 5.7
2014-Oct-16 08:33N 51°58' E 005°20'4 3.8
2014-Oct-16 07:33N 51°59' E 005°14'6 5.8
2014-Oct-16 06:33N 52°03' E 005°07'7 6.5
2014-Oct-16 05:33N 52°08' E 005°02'8 7.8
2014-Oct-16 04:33N 52°16' E 005°01'7 7.1
2014-Oct-16 03:33N 52°23' E 004°57'7 7.4
2014-Oct-16 02:34N 52°26' E 004°46'1 1.0
2014-Oct-16 01:33N 52°25' E 004°45'0 0.0
2014-Oct-16 00:33N 52°25' E 004°45'0 0.0
2014-Oct-15 23:33N 52°25' E 004°45'0 0.0
2014-Oct-15 22:33N 52°25' E 004°45'0 0.0
2014-Oct-15 21:33N 52°25' E 004°45'0 0.0
2014-Oct-15 20:33N 52°25' E 004°45'0 0.0
2014-Oct-15 19:33N 52°25' E 004°45'0 0.2
2014-Oct-15 18:33N 52°25' E 004°45'5 5.2
2014-Oct-15 17:33N 52°24' E 004°53'0 0.0
2014-Oct-15 16:34N 52°24' E 004°53'0 0.0
2014-Oct-15 15:33N 52°24' E 004°53'0 0.0
2014-Oct-15 14:34N 52°24' E 004°53'0 0.0
2014-Oct-15 13:34N 52°24' E 004°53'0 0.0
2014-Oct-15 12:34N 52°24' E 004°53'0 0.0
2014-Oct-15 11:34N 52°24' E 004°53'0 0.0
2014-Oct-15 10:34N 52°24' E 004°53'0 0.0
2014-Oct-15 09:34N 52°24' E 004°53'0 0.0
2014-Oct-15 08:34N 52°24' E 004°53'0 0.0
2014-Oct-15 07:34N 52°24' E 004°53'0 0.0
2014-Oct-15 06:33N 52°24' E 004°53'0 0.0
2014-Oct-15 05:34N 52°24' E 004°53'0 0.0
2014-Oct-15 04:34N 52°24' E 004°53'0 0.0
2014-Oct-15 03:33N 52°24' E 004°53'0 0.0
2014-Oct-15 02:34N 52°24' E 004°53'0 0.0
2014-Oct-15 01:33N 52°24' E 004°53'0 0.0
2014-Oct-15 00:34N 52°24' E 004°53'0 0.0
2014-Oct-14 23:34N 52°24' E 004°53'0 0.0
2014-Oct-14 22:34N 52°24' E 004°53'0 0.0
2014-Oct-14 21:33N 52°24' E 004°53'0 0.0
2014-Oct-14 20:33N 52°24' E 004°53'0 0.0
2014-Oct-14 19:34N 52°24' E 004°53'0 0.0
2014-Oct-14 18:34N 52°24' E 004°53'0 0.0
2014-Oct-14 17:33N 52°24' E 004°53'0 0.0
2014-Oct-14 16:34N 52°24' E 004°53'0 0.0
2014-Oct-14 15:34N 52°24' E 004°53'0 0.0
2014-Oct-14 14:33N 52°24' E 004°53'0 0.0
2014-Oct-14 13:34N 52°24' E 004°53'0 0.0
2014-Oct-14 12:34N 52°24' E 004°53'0 0.0
2014-Oct-14 11:33N 52°24' E 004°53'0 0.0
2014-Oct-14 10:34N 52°24' E 004°53'0 0.0
2014-Oct-14 09:34N 52°24' E 004°53'0 0.0
2014-Oct-14 08:34N 52°24' E 004°53'0 0.0
2014-Oct-14 07:34N 52°24' E 004°53'0 0.0
2014-Oct-14 06:34N 52°24' E 004°53'0 0.0
2014-Oct-14 05:34N 52°24' E 004°53'0 0.0
2014-Oct-14 04:34N 52°24' E 004°53'0 0.0
2014-Oct-14 03:34N 52°24' E 004°53'0 0.0
2014-Oct-14 02:33N 52°24' E 004°53'0 0.0
2014-Oct-14 01:33N 52°24' E 004°53'0 0.0
2014-Oct-14 00:33N 52°24' E 004°53'0 0.0
2014-Oct-13 23:34N 52°24' E 004°53'0 0.0
2014-Oct-13 22:33N 52°24' E 004°53'0 0.0
2014-Oct-13 21:33N 52°24' E 004°53'0 0.0
2014-Oct-13 20:34N 52°24' E 004°53'0 0.0
2014-Oct-13 19:34N 52°24' E 004°53'0 0.0
2014-Oct-13 18:34N 52°24' E 004°53'0 0.4
2014-Oct-13 17:33N 52°23' E 004°54'8 7.6
2014-Oct-13 16:33N 52°18' E 005°01'9 8.9
2014-Oct-13 15:33N 52°09' E 005°01'8 8.1
2014-Oct-13 14:33N 52°01' E 005°07'5 4.6
2014-Oct-13 13:33N 51°58' E 005°01'8 7.8
2014-Oct-13 12:33N 51°56' E 004°49'8 7.7
2014-Oct-13 11:33N 51°53' E 004°38'7 7.3
2014-Oct-13 10:33N 51°46' E 004°37'0 0.0
2014-Oct-13 09:33N 51°46' E 004°37'0 0.0
2014-Oct-13 08:33N 51°46' E 004°37'4 3.5
2014-Oct-13 07:26N 51°42' E 004°36'0 0.0
2014-Oct-13 06:30N 51°42' E 004°36'0 0.0
2014-Oct-13 05:29N 51°42' E 004°36'0 0.0
2014-Oct-13 04:32N 51°42' E 004°36'0 0.0
2014-Oct-13 03:29N 51°42' E 004°36'0 0.0
2014-Oct-13 02:33N 51°42' E 004°36'0 0.0
2014-Oct-13 01:30N 51°42' E 004°36'0 0.0
2014-Oct-13 00:30N 51°42' E 004°36'0 0.0
2014-Oct-12 23:33N 51°42' E 004°36'0 0.0
2014-Oct-12 22:21N 51°42' E 004°36'0 0.0
2014-Oct-12 21:22N 51°42' E 004°36'0 0.0
2014-Oct-12 20:33N 51°42' E 004°36'0 0.0
2014-Oct-12 19:27N 51°42' E 004°36'0 0.0
2014-Oct-12 18:28N 51°42' E 004°36'0 0.0
2014-Oct-12 17:10N 51°42' E 004°36'0 0.0
2014-Oct-12 14:13N 51°42' E 004°36'0 0.0
2014-Oct-12 13:28N 51°42' E 004°36'0 0.0
2014-Oct-12 12:26N 51°42' E 004°36'4 4.6
2014-Oct-12 11:33N 51°46' E 004°37'0 0.0
2014-Oct-12 10:33N 51°46' E 004°37'0 0.0
2014-Oct-12 09:33N 51°46' E 004°37'1 0.7
2014-Oct-12 08:33N 51°46' E 004°38'6 5.9
2014-Oct-12 07:33N 51°52' E 004°38'7 7.2
2014-Oct-12 06:33N 51°55' E 004°49'7 6.7
2014-Oct-12 05:33N 51°58' E 004°59'6 5.8
2014-Oct-12 04:33N 52°01' E 005°07'7 7.3
2014-Oct-12 03:33N 52°08' E 005°03'8 8.0
2014-Oct-12 02:33N 52°16' E 005°01'8 7.8
2014-Oct-12 01:33N 52°23' E 004°56'7 6.5
2014-Oct-12 00:33N 52°25' E 004°46'1 0.9
2014-Oct-11 23:33N 52°24' E 004°46'0 0.0
2014-Oct-11 22:33N 52°24' E 004°46'0 0.0
2014-Oct-11 21:33N 52°24' E 004°46'0 0.0
2014-Oct-11 20:33N 52°24' E 004°46'0 0.0
2014-Oct-11 19:33N 52°24' E 004°46'0 0.0
2014-Oct-11 18:33N 52°24' E 004°46'1 1.4
2014-Oct-11 17:33N 52°26' E 004°46'  
Track history (hours):
 
Tides and Currents Weather Stations Pressure Air Temp Water Temp Dewpoint Dewpoint Depression Visibility Wind Speed Wind Dir Waves Ship Positions

Astra

Last reported at 2014-Oct-21 17:33 UTC. Time now 2014-Oct-21 18:31 UTC.
Position N 49°23' E 008°30'.

Length 110 m; draft 1.4 m.

Type: Tanker. MMSI: 244650752.

Date/timePositionNaut miles runAvg speedWind from/ knotsBaromVisibWave heightAir tempDewpointWater temp
2014-Oct-21 17:33N 49°23' E 008°30'7 6.8
2014-Oct-21 16:33N 49°16' E 008°27'9 8.5
2014-Oct-21 15:33N 49°08' E 008°22'4 4.4
2014-Oct-21 14:33N 49°04' E 008°20'0 0.0
2014-Oct-21 13:33N 49°04' E 008°20'0 0.0
2014-Oct-21 12:33N 49°04' E 008°20'0 0.0
2014-Oct-21 11:33N 49°04' E 008°20'0 0.0
2014-Oct-21 10:33N 49°04' E 008°20'0 0.0
2014-Oct-21 09:33N 49°04' E 008°20'0 0.0
2014-Oct-21 08:33N 49°04' E 008°20'0 0.0
2014-Oct-21 07:33N 49°04' E 008°20'0 0.0
2014-Oct-21 06:33N 49°04' E 008°20'0 0.0
2014-Oct-21 05:33N 49°04' E 008°20'0 0.0
2014-Oct-21 04:33N 49°04' E 008°20'0 0.0
2014-Oct-21 03:33N 49°04' E 008°20'0 0.0
2014-Oct-21 02:33N 49°04' E 008°20'0 0.0
2014-Oct-21 01:33N 49°04' E 008°20'0 0.3
2014-Oct-21 00:33N 49°04' E 008°20'0 0.0
2014-Oct-20 23:33N 49°04' E 008°20'0 0.0
2014-Oct-20 22:33N 49°04' E 008°20'0 0.0
2014-Oct-20 21:33N 49°04' E 008°20'0 0.0
2014-Oct-20 20:33N 49°04' E 008°20'0 0.0
2014-Oct-20 19:33N 49°04' E 008°20'0 0.0
2014-Oct-20 18:33N 49°04' E 008°20'0 0.0
2014-Oct-20 17:33N 49°04' E 008°20'0 0.0
2014-Oct-20 16:33N 49°04' E 008°20'0 0.0
2014-Oct-20 15:33N 49°04' E 008°20'0 0.0
2014-Oct-20 14:33N 49°04' E 008°20'0 0.0
2014-Oct-20 13:33N 49°04' E 008°20'0 0.0
2014-Oct-20 12:33N 49°04' E 008°20'0 0.0
2014-Oct-20 11:33N 49°04' E 008°20'0 0.0
2014-Oct-20 10:33N 49°04' E 008°20'0 0.2
2014-Oct-20 09:33N 49°04' E 008°20'0 0.2
2014-Oct-20 08:33N 49°04' E 008°20'0 0.0
2014-Oct-20 07:33N 49°04' E 008°20'0 0.0
2014-Oct-20 06:34N 49°04' E 008°20'0 0.0
2014-Oct-20 05:33N 49°04' E 008°20'0 0.0
2014-Oct-20 04:33N 49°04' E 008°20'0 0.0
2014-Oct-20 03:33N 49°04' E 008°20'0 0.0
2014-Oct-20 02:34N 49°04' E 008°20'0 0.0
2014-Oct-20 01:33N 49°04' E 008°20'0 0.0
2014-Oct-20 00:33N 49°04' E 008°20'0 0.0
2014-Oct-19 23:33N 49°04' E 008°20'0 0.2
2014-Oct-19 22:33N 49°04' E 008°20'0 0.0
2014-Oct-19 21:33N 49°04' E 008°20'0 0.0
2014-Oct-19 20:33N 49°04' E 008°20'0 0.0
2014-Oct-19 19:33N 49°04' E 008°20'0 0.0
2014-Oct-19 18:33N 49°04' E 008°20'0 0.0
2014-Oct-19 17:33N 49°04' E 008°20'0 0.0
2014-Oct-19 16:33N 49°04' E 008°20'0 0.0
2014-Oct-19 15:33N 49°04' E 008°20'0 0.0
2014-Oct-19 14:33N 49°04' E 008°20'0 0.0
2014-Oct-19 13:33N 49°04' E 008°20'0 0.0
2014-Oct-19 12:33N 49°04' E 008°20'0 0.0
2014-Oct-19 11:33N 49°04' E 008°20'0 0.0
2014-Oct-19 10:33N 49°04' E 008°20'0 0.0
2014-Oct-19 09:33N 49°04' E 008°20'0 0.1
2014-Oct-19 08:33N 49°04' E 008°20'0 0.0
2014-Oct-19 07:33N 49°04' E 008°20'0 0.0
2014-Oct-19 06:33N 49°04' E 008°20'0 0.0
2014-Oct-19 05:33N 49°04' E 008°20'0 0.0
2014-Oct-19 04:33N 49°04' E 008°20'0 0.0
2014-Oct-19 03:33N 49°04' E 008°20'0 0.0
2014-Oct-19 02:33N 49°04' E 008°20'0 0.0
2014-Oct-19 01:33N 49°04' E 008°20'0 0.0
2014-Oct-19 00:33N 49°04' E 008°20'0 0.0
2014-Oct-18 23:33N 49°04' E 008°20'0 0.0
2014-Oct-18 22:33N 49°04' E 008°20'0 0.0
2014-Oct-18 21:33N 49°04' E 008°20'0 0.0
2014-Oct-18 20:33N 49°04' E 008°20'0 0.0
2014-Oct-18 19:33N 49°04' E 008°20'0 0.0
2014-Oct-18 18:33N 49°04' E 008°20'3 2.7
2014-Oct-18 17:33N 49°07' E 008°22'4 4.4
2014-Oct-18 16:33N 49°11' E 008°23'5 4.5
2014-Oct-18 15:33N 49°15' E 008°26'4 3.7
2014-Oct-18 14:33N 49°19' E 008°28'123 3.7
2014-Oct-17 05:05N 51°05' E 006°51'2 3.8
2014-Oct-17 04:33N 51°07' E 006°52'3 2.6
2014-Oct-17 03:33N 51°09' E 006°49'4 3.5
2014-Oct-17 02:33N 51°11' E 006°45'3 2.6
2014-Oct-17 01:33N 51°13' E 006°46'4 4.2
2014-Oct-17 00:33N 51°17' E 006°43'4 3.9
2014-Oct-16 23:33N 51°21' E 006°41'5 3.6
2014-Oct-16 22:17N 51°25' E 006°45'42 4.2
2014-Oct-16 12:14N 51°51' E 005°52'4 5.9
2014-Oct-16 11:33N 51°53' E 005°46'6 6.3
2014-Oct-16 10:33N 51°54' E 005°36'5 5.4
2014-Oct-16 09:33N 51°54' E 005°27'6 5.7
2014-Oct-16 08:33N 51°58' E 005°20'4 3.8
2014-Oct-16 07:33N 51°59' E 005°14'6 5.8
2014-Oct-16 06:33N 52°03' E 005°07'7 6.5
2014-Oct-16 05:33N 52°08' E 005°02'8 7.8
2014-Oct-16 04:33N 52°16' E 005°01'7 7.1
2014-Oct-16 03:33N 52°23' E 004°57'7 7.4
2014-Oct-16 02:34N 52°26' E 004°46'1 1.0
2014-Oct-16 01:33N 52°25' E 004°45'0 0.0
2014-Oct-16 00:33N 52°25' E 004°45'0 0.0
2014-Oct-15 23:33N 52°25' E 004°45'0 0.0
2014-Oct-15 22:33N 52°25' E 004°45'0 0.0
2014-Oct-15 21:33N 52°25' E 004°45'0 0.0
2014-Oct-15 20:33N 52°25' E 004°45'0 0.0
2014-Oct-15 19:33N 52°25' E 004°45'0 0.2
2014-Oct-15 18:33N 52°25' E 004°45'5 5.2
2014-Oct-15 17:33N 52°24' E 004°53'0 0.0
2014-Oct-15 16:34N 52°24' E 004°53'0 0.0
2014-Oct-15 15:33N 52°24' E 004°53'0 0.0
2014-Oct-15 14:34N 52°24' E 004°53'0 0.0
2014-Oct-15 13:34N 52°24' E 004°53'0 0.0
2014-Oct-15 12:34N 52°24' E 004°53'0 0.0
2014-Oct-15 11:34N 52°24' E 004°53'0 0.0
2014-Oct-15 10:34N 52°24' E 004°53'0 0.0
2014-Oct-15 09:34N 52°24' E 004°53'0 0.0
2014-Oct-15 08:34N 52°24' E 004°53'0 0.0
2014-Oct-15 07:34N 52°24' E 004°53'0 0.0
2014-Oct-15 06:33N 52°24' E 004°53'0 0.0
2014-Oct-15 05:34N 52°24' E 004°53'0 0.0
2014-Oct-15 04:34N 52°24' E 004°53'0 0.0
2014-Oct-15 03:33N 52°24' E 004°53'0 0.0
2014-Oct-15 02:34N 52°24' E 004°53'0 0.0
2014-Oct-15 01:33N 52°24' E 004°53'0 0.0
2014-Oct-15 00:34N 52°24' E 004°53'0 0.0
2014-Oct-14 23:34N 52°24' E 004°53'0 0.0
2014-Oct-14 22:34N 52°24' E 004°53'0 0.0
2014-Oct-14 21:33N 52°24' E 004°53'0 0.0
2014-Oct-14 20:33N 52°24' E 004°53'0 0.0
2014-Oct-14 19:34N 52°24' E 004°53'0 0.0
2014-Oct-14 18:34N 52°24' E 004°53'0 0.0
2014-Oct-14 17:33N 52°24' E 004°53'0 0.0
2014-Oct-14 16:34N 52°24' E 004°53'0 0.0
2014-Oct-14 15:34N 52°24' E 004°53'0 0.0
2014-Oct-14 14:33N 52°24' E 004°53'0 0.0
2014-Oct-14 13:34N 52°24' E 004°53'0 0.0
2014-Oct-14 12:34N 52°24' E 004°53'0 0.0
2014-Oct-14 11:33N 52°24' E 004°53'0 0.0
2014-Oct-14 10:34N 52°24' E 004°53'0 0.0
2014-Oct-14 09:34N 52°24' E 004°53'0 0.0
2014-Oct-14 08:34N 52°24' E 004°53'0 0.0
2014-Oct-14 07:34N 52°24' E 004°53'0 0.0
2014-Oct-14 06:34N 52°24' E 004°53'0 0.0
2014-Oct-14 05:34N 52°24' E 004°53'0 0.0
2014-Oct-14 04:34N 52°24' E 004°53'0 0.0
2014-Oct-14 03:34N 52°24' E 004°53'0 0.0
2014-Oct-14 02:33N 52°24' E 004°53'0 0.0
2014-Oct-14 01:33N 52°24' E 004°53'0 0.0
2014-Oct-14 00:33N 52°24' E 004°53'0 0.0
2014-Oct-13 23:34N 52°24' E 004°53'0 0.0
2014-Oct-13 22:33N 52°24' E 004°53'0 0.0
2014-Oct-13 21:33N 52°24' E 004°53'0 0.0
2014-Oct-13 20:34N 52°24' E 004°53'0 0.0
2014-Oct-13 19:34N 52°24' E 004°53'0 0.0
2014-Oct-13 18:34N 52°24' E 004°53'0 0.4
2014-Oct-13 17:33N 52°23' E 004°54'8 7.6
2014-Oct-13 16:33N 52°18' E 005°01'9 8.9
2014-Oct-13 15:33N 52°09' E 005°01'8 8.1
2014-Oct-13 14:33N 52°01' E 005°07'5 4.6
2014-Oct-13 13:33N 51°58' E 005°01'8 7.8
2014-Oct-13 12:33N 51°56' E 004°49'8 7.7
2014-Oct-13 11:33N 51°53' E 004°38'7 7.3
2014-Oct-13 10:33N 51°46' E 004°37'0 0.0
2014-Oct-13 09:33N 51°46' E 004°37'0 0.0
2014-Oct-13 08:33N 51°46' E 004°37'4 3.5
2014-Oct-13 07:26N 51°42' E 004°36'0 0.0
2014-Oct-13 06:30N 51°42' E 004°36'0 0.0
2014-Oct-13 05:29N 51°42' E 004°36'0 0.0
2014-Oct-13 04:32N 51°42' E 004°36'0 0.0
2014-Oct-13 03:29N 51°42' E 004°36'0 0.0
2014-Oct-13 02:33N 51°42' E 004°36'0 0.0
2014-Oct-13 01:30N 51°42' E 004°36'0 0.0
2014-Oct-13 00:30N 51°42' E 004°36'0 0.0
2014-Oct-12 23:33N 51°42' E 004°36'0 0.0
2014-Oct-12 22:21N 51°42' E 004°36'0 0.0
2014-Oct-12 21:22N 51°42' E 004°36'0 0.0
2014-Oct-12 20:33N 51°42' E 004°36'0 0.0
2014-Oct-12 19:27N 51°42' E 004°36'0 0.0
2014-Oct-12 18:28N 51°42' E 004°36'0 0.0
2014-Oct-12 17:10N 51°42' E 004°36'0 0.0
2014-Oct-12 14:13N 51°42' E 004°36'0 0.0
2014-Oct-12 13:28N 51°42' E 004°36'0 0.0
2014-Oct-12 12:26N 51°42' E 004°36'4 4.6
2014-Oct-12 11:33N 51°46' E 004°37'0 0.0
2014-Oct-12 10:33N 51°46' E 004°37'0 0.0
2014-Oct-12 09:33N 51°46' E 004°37'1 0.7
2014-Oct-12 08:33N 51°46' E 004°38'6 5.9
2014-Oct-12 07:33N 51°52' E 004°38'7 7.2
2014-Oct-12 06:33N 51°55' E 004°49'7 6.7
2014-Oct-12 05:33N 51°58' E 004°59'6 5.8
2014-Oct-12 04:33N 52°01' E 005°07'7 7.3
2014-Oct-12 03:33N 52°08' E 005°03'8 8.0
2014-Oct-12 02:33N 52°16' E 005°01'8 7.8
2014-Oct-12 01:33N 52°23' E 004°56'7 6.5
2014-Oct-12 00:33N 52°25' E 004°46'1 0.9
2014-Oct-11 23:33N 52°24' E 004°46'0 0.0
2014-Oct-11 22:33N 52°24' E 004°46'0 0.0
2014-Oct-11 21:33N 52°24' E 004°46'0 0.0
2014-Oct-11 20:33N 52°24' E 004°46'0 0.0
2014-Oct-11 19:33N 52°24' E 004°46'0 0.0
2014-Oct-11 18:33N 52°24' E 004°46'1 1.4
2014-Oct-11 17:33N 52°26' E 004°46'  

Dump ship's entire track history